Time;durP1;ratioP1;P1;durP2;ratioP2;P2;SDS_P1;SDS_P2;PMS_P1;PMS_P2;Temp;Humidity;BMP_temperature;BMP_pressure;BME280_temperature;BME280_humidity;BME280_pressure;Samples;Min_cycle;Max_cycle;Signal;HPM_P1;HPM_P2
2023/04/13 00:01:58;;;;;;;;;;;18.20;52.70;;;;;;6197745;28;19910;-69
2023/04/13 00:04:59;;;;;;;;;;;18.20;52.60;;;;;;6197782;28;19910;-70
2023/04/13 00:08:02;;;;;;;;;;;18.20;52.60;;;;;;6198495;28;20611;-70
2023/04/13 00:11:03;;;;;;;;;;;18.20;52.60;;;;;;6198490;28;19946;-70
2023/04/13 00:14:03;;;;;;;;;;;18.20;52.60;;;;;;6198170;28;19917;-70
2023/04/13 00:17:04;;;;;;;;;;;18.20;52.60;;;;;;6197725;28;19958;-70
2023/04/13 00:20:09;;;;;;;;;;;18.20;52.60;;;;;;6198025;28;20004;-69
2023/04/13 00:23:10;;;;;;;;;;;18.20;52.60;;;;;;6197420;28;19910;-70
2023/04/13 00:26:10;;;;;;;;;;;18.20;52.50;;;;;;6197594;28;19920;-69
2023/04/13 00:29:11;;;;;;;;;;;18.20;52.60;;;;;;6197661;28;19961;-70
2023/04/13 00:32:12;;;;;;;;;;;18.20;52.60;;;;;;6197844;28;19945;-69
2023/04/13 00:35:23;;;;;;;;;;;18.20;53.00;;;;;;6197260;28;19961;-69
2023/04/13 00:38:26;;;;;;;;;;;18.30;52.80;;;;;;6197945;28;19910;-70
2023/04/13 00:41:26;;;;;;;;;;;18.20;52.70;;;;;;6197592;28;19910;-70
2023/04/13 00:44:27;;;;;;;;;;;18.30;52.80;;;;;;6197124;28;19969;-70
2023/04/13 00:47:31;;;;;;;;;;;18.20;52.60;;;;;;6179914;28;19921;-70
2023/04/13 04:10:38;;;;;;;;;;;18.20;52.80;;;;;;2767313;27;20135;-67
2023/04/13 04:13:39;;;;;;;;;;;18.20;52.80;;;;;;6102595;29;19922;-67
2023/04/13 04:16:39;;;;;;;;;;;18.20;52.90;;;;;;6126523;29;19906;-67
2023/04/13 04:19:40;;;;;;;;;;;18.20;52.90;;;;;;6125266;29;19911;-67
2023/04/13 04:22:40;;;;;;;;;;;18.20;52.80;;;;;;6126466;29;19950;-67
2023/04/13 04:25:41;;;;;;;;;;;18.20;52.90;;;;;;6126347;29;19911;-67
2023/04/13 04:28:41;;;;;;;;;;;18.20;52.80;;;;;;6125162;29;19911;-67
2023/04/13 04:31:43;;;;;;;;;;;18.20;52.80;;;;;;6126023;29;19926;-67
2023/04/13 04:34:43;;;;;;;;;;;18.20;52.80;;;;;;6126051;29;19910;-68
2023/04/13 04:37:44;;;;;;;;;;;18.20;52.90;;;;;;6124529;29;19911;-71
2023/04/13 04:40:45;;;;;;;;;;;18.20;52.80;;;;;;6127169;29;19915;-70
2023/04/13 04:43:48;;;;;;;;;;;18.20;52.70;;;;;;6094489;29;20349;-70
2023/04/13 04:46:51;;;;;;;;;;;18.20;52.80;;;;;;6102125;29;19907;-71
2023/04/13 04:49:51;;;;;;;;;;;18.20;52.80;;;;;;6102084;29;20321;-70
2023/04/13 04:52:52;;;;;;;;;;;18.20;52.90;;;;;;6093611;29;19922;-71
2023/04/13 04:55:53;;;;;;;;;;;18.20;52.90;;;;;;6136138;29;19911;-70
2023/04/13 04:58:53;;;;;;;;;;;18.20;52.90;;;;;;6142897;29;19973;-69
2023/04/13 05:01:54;;;;;;;;;;;18.20;52.90;;;;;;6124991;29;19994;-70
2023/04/13 05:04:56;;;;;;;;;;;18.30;52.90;;;;;;6131402;29;19910;-70
2023/04/13 05:07:57;;;;;;;;;;;18.30;52.90;;;;;;6149252;29;19915;-70
2023/04/13 05:10:57;;;;;;;;;;;18.30;52.90;;;;;;6146230;29;20037;-70
2023/04/13 05:13:58;;;;;;;;;;;18.30;53.00;;;;;;6133988;29;19918;-69
2023/04/13 05:17:00;;;;;;;;;;;18.20;52.80;;;;;;6122600;29;19914;-69
2023/04/13 05:20:03;;;;;;;;;;;18.30;52.90;;;;;;6116353;29;19951;-70
2023/04/13 05:23:03;;;;;;;;;;;18.30;52.90;;;;;;6139301;29;19997;-70
2023/04/13 05:26:04;;;;;;;;;;;18.30;52.90;;;;;;6128238;29;20271;-70
2023/04/13 05:29:06;;;;;;;;;;;18.20;52.90;;;;;;6129465;29;19918;-70
2023/04/13 05:32:07;;;;;;;;;;;18.20;52.90;;;;;;6131020;29;19947;-69
2023/04/13 05:35:09;;;;;;;;;;;18.30;53.00;;;;;;6126440;29;19911;-69
2023/04/13 05:38:09;;;;;;;;;;;18.30;52.80;;;;;;6141105;29;19933;-69
2023/04/13 05:41:10;;;;;;;;;;;18.30;52.90;;;;;;6114713;29;20385;-69
2023/04/13 05:44:11;;;;;;;;;;;18.40;52.70;;;;;;6099947;29;19911;-69
2023/04/13 05:47:11;;;;;;;;;;;18.40;52.50;;;;;;6139839;28;19917;-70
2023/04/13 05:50:12;;;;;;;;;;;18.40;52.90;;;;;;6123543;29;19917;-69
2023/04/13 05:53:13;;;;;;;;;;;18.40;52.80;;;;;;6145023;29;19942;-70
2023/04/13 05:56:14;;;;;;;;;;;18.40;52.70;;;;;;6123810;29;19911;-67
2023/04/13 05:59:15;;;;;;;;;;;18.30;52.60;;;;;;6119935;29;19922;-67
2023/04/13 06:02:15;;;;;;;;;;;18.40;52.80;;;;;;6123524;29;19930;-67
2023/04/13 06:05:17;;;;;;;;;;;18.30;52.70;;;;;;6124626;29;20000;-68
2023/04/13 06:08:17;;;;;;;;;;;18.40;52.70;;;;;;6125986;29;19911;-67
2023/04/13 06:11:19;;;;;;;;;;;18.30;52.80;;;;;;6125454;29;19927;-67
2023/04/13 06:14:21;;;;;;;;;;;18.30;52.80;;;;;;6125660;29;20302;-67
2023/04/13 06:17:21;;;;;;;;;;;18.30;52.80;;;;;;6125756;29;19933;-68
2023/04/13 06:20:22;;;;;;;;;;;18.30;52.80;;;;;;6126119;29;19911;-68
2023/04/13 06:23:23;;;;;;;;;;;18.30;52.70;;;;;;6125730;29;19911;-67
2023/04/13 06:26:24;;;;;;;;;;;18.30;52.70;;;;;;6125510;29;19939;-67
2023/04/13 06:29:25;;;;;;;;;;;18.30;52.70;;;;;;6122034;29;19911;-69
2023/04/13 06:32:26;;;;;;;;;;;18.30;52.70;;;;;;6118559;29;19947;-67
2023/04/13 06:35:28;;;;;;;;;;;18.40;52.70;;;;;;6125572;29;20385;-67
2023/04/13 06:38:28;;;;;;;;;;;18.30;52.70;;;;;;6125404;29;19921;-68
2023/04/13 06:41:29;;;;;;;;;;;18.40;52.70;;;;;;6124242;29;20393;-67
2023/04/13 06:44:29;;;;;;;;;;;18.30;52.60;;;;;;6108997;29;20595;-67
2023/04/13 06:47:31;;;;;;;;;;;18.30;52.60;;;;;;6125650;29;20013;-67
2023/04/13 06:50:31;;;;;;;;;;;18.30;52.70;;;;;;6125693;29;19915;-68
2023/04/13 06:53:32;;;;;;;;;;;18.30;52.60;;;;;;6125249;29;19911;-67
2023/04/13 06:56:32;;;;;;;;;;;18.30;52.60;;;;;;6108731;29;19918;-67
2023/04/13 06:59:33;;;;;;;;;;;18.30;52.60;;;;;;6115587;29;19911;-68
2023/04/13 07:02:34;;;;;;;;;;;18.30;52.60;;;;;;6130276;29;20425;-67
2023/04/13 07:05:35;;;;;;;;;;;18.30;52.60;;;;;;6129779;29;19958;-68
2023/04/13 07:08:35;;;;;;;;;;;18.30;52.70;;;;;;6130126;29;19911;-68
2023/04/13 07:11:36;;;;;;;;;;;18.40;52.70;;;;;;6129643;29;19933;-67
2023/04/13 07:14:37;;;;;;;;;;;18.30;52.60;;;;;;6129976;29;19915;-68
2023/04/13 07:17:38;;;;;;;;;;;18.30;52.60;;;;;;6153455;29;19910;-67
2023/04/13 07:20:38;;;;;;;;;;;18.40;52.70;;;;;;6153683;29;19957;-68
2023/04/13 07:23:41;;;;;;;;;;;18.40;52.70;;;;;;6153390;28;19997;-68
2023/04/13 07:26:42;;;;;;;;;;;18.40;52.60;;;;;;6153392;29;19911;-68
2023/04/13 07:29:42;;;;;;;;;;;18.30;52.60;;;;;;6152211;29;19966;-67
2023/04/13 07:32:44;;;;;;;;;;;18.30;52.60;;;;;;6138511;29;19982;-68
2023/04/13 07:35:45;;;;;;;;;;;18.30;52.50;;;;;;6129406;29;19917;-68
2023/04/13 07:38:46;;;;;;;;;;;18.30;52.70;;;;;;6129399;29;19911;-68
2023/04/13 07:41:47;;;;;;;;;;;18.30;52.60;;;;;;6129525;29;19966;-67
2023/04/13 07:44:47;;;;;;;;;;;18.30;52.70;;;;;;6129049;29;19911;-68
2023/04/13 07:47:48;;;;;;;;;;;18.40;52.80;;;;;;6129256;29;19929;-68
2023/04/13 07:50:49;;;;;;;;;;;18.30;52.60;;;;;;6132771;29;19918;-68
2023/04/13 07:53:51;;;;;;;;;;;18.40;52.80;;;;;;6152541;28;19910;-68
2023/04/13 07:56:51;;;;;;;;;;;18.30;52.70;;;;;;6152614;29;20290;-68
2023/04/13 07:59:52;;;;;;;;;;;18.30;52.70;;;;;;6151426;29;20084;-68
2023/04/13 08:02:53;;;;;;;;;;;18.30;52.70;;;;;;6152474;29;19910;-68
2023/04/13 08:05:53;;;;;;;;;;;18.30;52.60;;;;;;6152686;28;19944;-68
2023/04/13 08:08:54;;;;;;;;;;;18.30;52.70;;;;;;6152406;29;19957;-68
2023/04/13 08:11:55;;;;;;;;;;;18.30;52.80;;;;;;6139013;28;19970;-68
2023/04/13 08:14:55;;;;;;;;;;;18.30;52.70;;;;;;6127030;29;19997;-68
2023/04/13 08:17:57;;;;;;;;;;;18.30;52.80;;;;;;6128655;29;19915;-68
2023/04/13 08:20:58;;;;;;;;;;;18.40;52.80;;;;;;6128155;29;19946;-68
2023/04/13 08:23:58;;;;;;;;;;;18.30;52.70;;;;;;6128178;29;19917;-68
2023/04/13 08:26:59;;;;;;;;;;;18.30;52.80;;;;;;6128083;29;19911;-68
2023/04/13 08:30:00;;;;;;;;;;;18.30;52.80;;;;;;6128333;29;19997;-68
2023/04/13 08:33:01;;;;;;;;;;;18.30;52.80;;;;;;6127721;29;19955;-68
2023/04/13 08:36:02;;;;;;;;;;;18.40;52.90;;;;;;6126055;29;19918;-68
2023/04/13 08:39:04;;;;;;;;;;;18.40;52.80;;;;;;6104203;29;19939;-68
2023/04/13 08:42:06;;;;;;;;;;;18.40;52.80;;;;;;6126575;29;20317;-68
2023/04/13 08:45:08;;;;;;;;;;;18.40;52.80;;;;;;6126483;29;19919;-68
2023/04/13 08:48:12;;;;;;;;;;;18.40;52.90;;;;;;6127803;29;19917;-67
2023/04/13 08:51:13;;;;;;;;;;;18.40;52.80;;;;;;6126980;29;19970;-68
2023/04/13 08:54:15;;;;;;;;;;;18.30;52.70;;;;;;6151412;28;19916;-67
2023/04/13 08:57:15;;;;;;;;;;;18.30;52.70;;;;;;6151377;29;19911;-68
2023/04/13 09:00:17;;;;;;;;;;;18.40;52.80;;;;;;6151311;29;19972;-68
2023/04/13 09:03:21;;;;;;;;;;;18.30;52.70;;;;;;6150262;29;19918;-67
2023/04/13 09:06:33;;;;;;;;;;;18.30;52.60;;;;;;6149883;28;19917;-68
2023/04/13 09:09:36;;;;;;;;;;;18.40;52.80;;;;;;6151328;29;19910;-68
2023/04/13 09:12:39;;;;;;;;;;;18.40;52.80;;;;;;6150800;29;19923;-68
2023/04/13 09:15:41;;;;;;;;;;;18.40;52.80;;;;;;6149730;29;20008;-68
2023/04/13 09:18:55;;;;;;;;;;;18.40;52.80;;;;;;6133264;29;20297;-69
2023/04/13 09:21:56;;;;;;;;;;;18.40;52.80;;;;;;6126800;29;19917;-68
2023/04/13 09:24:57;;;;;;;;;;;18.30;52.70;;;;;;6126548;29;19915;-68
2023/04/13 09:27:58;;;;;;;;;;;18.30;52.70;;;;;;6126756;29;19938;-68
2023/04/13 09:31:02;;;;;;;;;;;18.40;52.80;;;;;;6126659;29;19915;-68
2023/04/13 09:34:03;;;;;;;;;;;18.40;52.80;;;;;;6144866;28;19978;-68
2023/04/13 09:37:13;;;;;;;;;;;18.40;52.80;;;;;;6150017;29;19917;-68
2023/04/13 09:40:15;;;;;;;;;;;18.40;52.80;;;;;;6148797;29;19920;-68
2023/04/13 09:43:16;;;;;;;;;;;18.30;52.80;;;;;;6126983;29;19918;-69
2023/04/13 09:46:16;;;;;;;;;;;18.40;52.80;;;;;;6126307;29;19965;-68
2023/04/13 09:49:17;;;;;;;;;;;18.40;52.70;;;;;;6126563;29;19939;-68
2023/04/13 09:52:18;;;;;;;;;;;18.40;52.80;;;;;;6126337;29;19914;-68
2023/04/13 09:55:19;;;;;;;;;;;18.40;52.90;;;;;;6149925;28;19911;-68
2023/04/13 09:58:20;;;;;;;;;;;18.40;52.70;;;;;;6140471;29;19930;-68
2023/04/13 10:01:21;;;;;;;;;;;18.40;52.60;;;;;;6126018;29;19966;-68
2023/04/13 10:04:22;;;;;;;;;;;18.40;52.50;;;;;;6126069;29;19910;-68
2023/04/13 10:07:25;;;;;;;;;;;18.50;52.50;;;;;;6126131;29;20282;-68
2023/04/13 10:10:26;;;;;;;;;;;18.50;52.40;;;;;;6125876;29;20309;-68
2023/04/13 10:13:30;;;;;;;;;;;18.50;52.30;;;;;;6125964;29;19926;-68
2023/04/13 10:16:37;;;;;;;;;;;18.50;52.30;;;;;;6125962;29;19915;-68
2023/04/13 10:19:40;;;;;;;;;;;18.50;52.20;;;;;;6124772;29;19910;-68
2023/04/13 10:22:43;;;;;;;;;;;18.50;52.20;;;;;;6126865;29;19911;-68
2023/04/13 10:25:50;;;;;;;;;;;18.50;52.20;;;;;;6148721;29;20329;-69
2023/04/13 10:28:51;;;;;;;;;;;18.50;52.20;;;;;;6149203;29;19958;-69
2023/04/13 10:31:53;;;;;;;;;;;18.50;52.30;;;;;;6136866;29;19914;-71
2023/04/13 10:35:07;;;;;;;;;;;18.50;52.50;;;;;;6121326;29;19962;-69
2023/04/13 10:38:09;;;;;;;;;;;18.50;52.60;;;;;;6106596;29;19970;-69
2023/04/13 10:41:21;;;;;;;;;;;18.50;52.60;;;;;;6124146;29;19911;-69
2023/04/13 10:44:22;;;;;;;;;;;18.50;52.70;;;;;;6106057;29;19915;-67
2023/04/13 10:47:22;;;;;;;;;;;18.50;52.70;;;;;;6123548;29;19933;-69
2023/04/13 10:50:26;;;;;;;;;;;18.40;52.40;;;;;;6135874;29;19915;-69
2023/04/13 10:53:29;;;;;;;;;;;18.40;51.90;;;;;;6129141;29;19915;-69
2023/04/13 10:56:30;;;;;;;;;;;18.40;51.40;;;;;;6143018;29;20013;-69
2023/04/13 10:59:43;;;;;;;;;;;18.40;51.20;;;;;;6139992;29;19921;-69
2023/04/13 11:02:44;;;;;;;;;;;18.40;51.50;;;;;;6129561;29;19915;-71
2023/04/13 11:05:46;;;;;;;;;;;18.40;51.70;;;;;;6128928;29;20401;-71
2023/04/13 11:08:46;;;;;;;;;;;18.40;52.00;;;;;;6129057;29;19915;-69
2023/04/13 11:11:50;;;;;;;;;;;18.40;52.00;;;;;;6127491;29;19970;-69
2023/04/13 11:14:51;;;;;;;;;;;18.40;52.20;;;;;;6127078;29;19917;-69
2023/04/13 11:17:56;;;;;;;;;;;18.40;52.30;;;;;;6127095;29;19911;-69
2023/04/13 11:20:57;;;;;;;;;;;18.40;52.30;;;;;;6120805;29;19914;-72
2023/04/13 11:24:00;;;;;;;;;;;18.40;52.40;;;;;;6152201;28;20404;-71
2023/04/13 11:27:02;;;;;;;;;;;18.40;52.40;;;;;;6119855;29;19914;-70
2023/04/13 11:30:04;;;;;;;;;;;18.40;52.50;;;;;;6119458;29;19918;-71
2023/04/13 11:33:05;;;;;;;;;;;18.40;52.50;;;;;;6124939;29;19918;-69
2023/04/13 11:36:06;;;;;;;;;;;18.40;52.60;;;;;;6122039;29;19911;-70
2023/04/13 11:39:08;;;;;;;;;;;18.40;52.60;;;;;;6134633;29;19914;-69
2023/04/13 11:42:10;;;;;;;;;;;18.40;52.60;;;;;;6141733;29;19965;-69
2023/04/13 11:45:12;;;;;;;;;;;18.40;52.70;;;;;;6143003;29;19950;-69
2023/04/13 11:48:13;;;;;;;;;;;18.40;52.70;;;;;;6128108;29;19910;-69
2023/04/13 11:51:15;;;;;;;;;;;18.40;52.70;;;;;;6126394;29;19922;-69
2023/04/13 11:54:16;;;;;;;;;;;18.40;52.90;;;;;;6150184;28;19910;-69
2023/04/13 11:57:17;;;;;;;;;;;18.40;52.80;;;;;;6127140;29;19915;-70
2023/04/13 12:00:22;;;;;;;;;;;18.40;52.80;;;;;;6127381;29;19973;-68
2023/04/13 12:03:24;;;;;;;;;;;18.40;52.80;;;;;;6125864;29;19911;-68
2023/04/13 12:06:26;;;;;;;;;;;18.40;52.80;;;;;;6127195;29;19910;-69
2023/04/13 12:09:26;;;;;;;;;;;18.40;52.90;;;;;;6127385;29;19966;-71
2023/04/13 12:12:29;;;;;;;;;;;18.40;52.90;;;;;;6126920;29;20567;-69
2023/04/13 12:15:31;;;;;;;;;;;18.40;52.90;;;;;;6126773;29;20333;-70
2023/04/13 12:18:42;;;;;;;;;;;18.40;52.90;;;;;;6127212;29;20366;-70
2023/04/13 12:21:49;;;;;;;;;;;18.40;53.00;;;;;;6126226;29;19911;-68
2023/04/13 12:24:50;;;;;;;;;;;18.40;52.90;;;;;;6127394;29;19933;-71
2023/04/13 12:27:51;;;;;;;;;;;18.40;52.90;;;;;;6112301;29;20379;-71
2023/04/13 12:30:52;;;;;;;;;;;18.40;52.90;;;;;;6102383;29;19922;-71
2023/04/13 12:37:30;;;;;;;;;;;18.40;53.00;;;;;;6107136;29;20451;-70
2023/04/13 12:40:31;;;;;;;;;;;18.40;53.00;;;;;;6100893;29;19926;-69
2023/04/13 12:43:31;;;;;;;;;;;18.40;53.00;;;;;;6133577;29;19910;-70
2023/04/13 12:46:32;;;;;;;;;;;18.40;53.00;;;;;;6133081;29;20006;-72
2023/04/13 12:49:33;;;;;;;;;;;18.40;53.10;;;;;;6125391;29;19914;-72
2023/04/13 12:52:34;;;;;;;;;;;18.40;53.10;;;;;;6124354;29;19918;-69
2023/04/13 12:55:34;;;;;;;;;;;18.40;53.00;;;;;;6124296;29;19911;-69
2023/04/13 12:58:35;;;;;;;;;;;18.40;53.10;;;;;;6124606;29;19938;-69
2023/04/13 13:01:36;;;;;;;;;;;18.40;53.10;;;;;;6125280;29;19910;-69
2023/04/13 13:04:37;;;;;;;;;;;18.40;53.10;;;;;;6125627;29;19942;-69
2023/04/13 13:07:37;;;;;;;;;;;18.40;53.10;;;;;;6125045;29;20374;-71
2023/04/13 13:10:39;;;;;;;;;;;18.40;53.10;;;;;;6124736;29;19919;-69
2023/04/13 13:13:40;;;;;;;;;;;18.40;53.10;;;;;;6104408;29;19947;-69
2023/04/13 13:24:34;;;;;;;;;;;18.40;53.10;;;;;;6126379;29;19911;-69
2023/04/13 13:46:07;;;;;;;;;;;18.40;53.30;;;;;;6123273;29;19914;-69
2023/04/13 13:49:08;;;;;;;;;;;18.40;53.20;;;;;;6136014;29;20417;-65
2023/04/13 13:52:08;;;;;;;;;;;18.40;53.30;;;;;;6124995;29;19922;-68
2023/04/13 13:55:09;;;;;;;;;;;18.30;53.20;;;;;;6119887;29;19911;-67
2023/04/13 13:58:10;;;;;;;;;;;18.30;53.00;;;;;;6131488;29;20030;-70
2023/04/13 14:01:11;;;;;;;;;;;18.40;53.00;;;;;;6148364;29;19934;-65
2023/04/13 14:04:11;;;;;;;;;;;18.30;52.60;;;;;;6113891;29;19918;-70
2023/04/13 14:07:13;;;;;;;;;;;18.30;52.60;;;;;;6116366;29;20001;-70
2023/04/13 14:10:13;;;;;;;;;;;18.40;53.00;;;;;;6123609;29;19990;-70
2023/04/13 14:13:14;;;;;;;;;;;18.30;52.90;;;;;;6124035;29;19919;-69
2023/04/13 14:16:17;;;;;;;;;;;18.40;53.00;;;;;;6122797;29;19915;-70
2023/04/13 14:19:20;;;;;;;;;;;18.30;52.90;;;;;;6139924;29;19914;-71
2023/04/13 15:22:44;;;;;;;;;;;;;;;;;;;;;
2023/04/13 15:38:00;;;;;;;;;;;18.40;53.30;;;;;;6076929;29;19915;-70
2023/04/13 15:41:04;;;;;;;;;;;18.40;53.30;;;;;;6119552;29;19911;-70
2023/04/13 15:44:05;;;;;;;;;;;18.30;53.30;;;;;;6127744;29;20392;-70
2023/04/13 15:47:05;;;;;;;;;;;18.30;53.30;;;;;;6104167;29;20012;-70
2023/04/13 15:50:40;;;;;;;;;;;18.30;53.30;;;;;;6128782;29;19914;-70
2023/04/13 16:01:06;;;;;;;;;;;18.30;53.30;;;;;;6126685;29;19923;-72
2023/04/13 16:04:11;;;;;;;;;;;18.30;53.30;;;;;;6127033;29;20009;-71
2023/04/13 16:11:03;;;;;;;;;;;18.30;53.30;;;;;;6112749;29;19922;-70
2023/04/13 16:14:07;;;;;;;;;;;18.40;53.40;;;;;;6126608;29;19911;-72
2023/04/13 16:32:09;;;;;;;;;;;18.30;53.40;;;;;;6131555;29;20366;-72
2023/04/13 16:35:14;;;;;;;;;;;18.30;53.30;;;;;;6119584;29;19911;-72
2023/04/13 16:38:19;;;;;;;;;;;18.40;53.30;;;;;;6124255;29;20429;-72
2023/04/13 16:53:04;;;;;;;;;;;18.30;53.30;;;;;;6049744;29;19922;-70
2023/04/13 16:56:09;;;;;;;;;;;18.40;53.40;;;;;;6107149;29;20009;-71
